sensor_id;sensor_type;location;lat;lon;timestamp;pressure;altitude;pressure_sealevel;temperature;humidity
34584;BME280;53696;52.738;4.752;2023-04-25T00:02:26;101121.44;;;18.15;64.00
34584;BME280;53696;52.738;4.752;2023-04-25T00:04:54;101113.47;;;18.13;64.10
34584;BME280;53696;52.738;4.752;2023-04-25T00:07:25;101115.31;;;18.11;64.26
34584;BME280;53696;52.738;4.752;2023-04-25T00:09:53;101116.31;;;18.09;63.95
34584;BME280;53696;52.738;4.752;2023-04-25T00:12:21;101107.44;;;18.07;63.95
34584;BME280;53696;52.738;4.752;2023-04-25T00:14:50;101118.22;;;18.05;64.09
34584;BME280;53696;52.738;4.752;2023-04-25T00:17:19;101117.38;;;18.03;64.00
34584;BME280;53696;52.738;4.752;2023-04-25T00:19:46;101128.16;;;18.02;64.23
34584;BME280;53696;52.738;4.752;2023-04-25T00:22:14;101127.25;;;18.01;64.06
34584;BME280;53696;52.738;4.752;2023-04-25T00:24:42;101122.81;;;18.00;63.67
34584;BME280;53696;52.738;4.752;2023-04-25T00:27:09;101130.91;;;17.98;64.00
34584;BME280;53696;52.738;4.752;2023-04-25T00:29:37;101126.53;;;17.96;63.99
34584;BME280;53696;52.738;4.752;2023-04-25T00:32:06;101123.00;;;17.95;63.75
34584;BME280;53696;52.738;4.752;2023-04-25T00:34:34;101121.28;;;17.93;63.97
34584;BME280;53696;52.738;4.752;2023-04-25T00:37:02;101123.09;;;17.92;63.92
34584;BME280;53696;52.738;4.752;2023-04-25T00:39:30;101119.53;;;17.92;63.98
34584;BME280;53696;52.738;4.752;2023-04-25T00:41:58;101123.19;;;17.89;63.66
34584;BME280;53696;52.738;4.752;2023-04-25T00:44:27;101119.72;;;17.87;63.92
34584;BME280;53696;52.738;4.752;2023-04-25T00:46:55;101125.06;;;17.87;63.98
34584;BME280;53696;52.738;4.752;2023-04-25T00:49:25;101122.41;;;17.85;63.56
34584;BME280;53696;52.738;4.752;2023-04-25T00:51:53;101126.97;;;17.83;63.70
34584;BME280;53696;52.738;4.752;2023-04-25T00:54:20;101114.53;;;17.81;63.74
34584;BME280;53696;52.738;4.752;2023-04-25T00:56:48;101122.56;;;17.81;63.81
34584;BME280;53696;52.738;4.752;2023-04-25T00:59:16;101119.94;;;17.79;63.60
34584;BME280;53696;52.738;4.752;2023-04-25T01:01:45;101127.13;;;17.77;63.47
34584;BME280;53696;52.738;4.752;2023-04-25T01:04:13;101120.91;;;17.77;63.47
34584;BME280;53696;52.738;4.752;2023-04-25T01:06:43;101134.34;;;17.75;63.44
34584;BME280;53696;52.738;4.752;2023-04-25T01:09:12;101126.41;;;17.72;63.35
34584;BME280;53696;52.738;4.752;2023-04-25T01:11:40;101134.44;;;17.72;63.59
34584;BME280;53696;52.738;4.752;2023-04-25T01:14:07;101130.94;;;17.70;63.63
34584;BME280;53696;52.738;4.752;2023-04-25T01:16:35;101134.53;;;17.69;63.62
34584;BME280;53696;52.738;4.752;2023-04-25T01:19:05;101130.13;;;17.68;63.30
34584;BME280;53696;52.738;4.752;2023-04-25T01:21:37;101132.03;;;17.64;63.38
34584;BME280;53696;52.738;4.752;2023-04-25T01:24:05;101139.16;;;17.64;63.37
34584;BME280;53696;52.738;4.752;2023-04-25T01:26:33;101143.66;;;17.63;63.55
34584;BME280;53696;52.738;4.752;2023-04-25T01:29:03;101144.50;;;17.64;63.21
34584;BME280;53696;52.738;4.752;2023-04-25T01:31:32;101149.91;;;17.62;63.58
34584;BME280;53696;52.738;4.752;2023-04-25T01:34:00;101151.75;;;17.60;63.34
34584;BME280;53696;52.738;4.752;2023-04-25T01:36:28;101163.34;;;17.61;63.36
34584;BME280;53696;52.738;4.752;2023-04-25T01:38:58;101161.63;;;17.58;63.56
34584;BME280;53696;52.738;4.752;2023-04-25T01:41:26;101164.28;;;17.58;63.26
34584;BME280;53696;52.738;4.752;2023-04-25T01:43:54;101160.75;;;17.58;62.97
34584;BME280;53696;52.738;4.752;2023-04-25T01:46:22;101165.28;;;17.56;63.14
34584;BME280;53696;52.738;4.752;2023-04-25T01:48:50;101164.44;;;17.53;63.15
34584;BME280;53696;52.738;4.752;2023-04-25T01:51:17;101163.56;;;17.53;63.20
34584;BME280;53696;52.738;4.752;2023-04-25T01:53:46;101167.13;;;17.52;63.25
34584;BME280;53696;52.738;4.752;2023-04-25T01:56:15;101167.19;;;17.50;62.92
34584;BME280;53696;52.738;4.752;2023-04-25T01:58:43;101165.44;;;17.49;63.05
34584;BME280;53696;52.738;4.752;2023-04-25T02:01:10;101162.81;;;17.48;63.24
34584;BME280;53696;52.738;4.752;2023-04-25T02:03:39;101177.06;;;17.48;62.86
34584;BME280;53696;52.738;4.752;2023-04-25T02:06:07;101184.22;;;17.46;63.06
34584;BME280;53696;52.738;4.752;2023-04-25T02:08:35;101176.22;;;17.46;62.83
34584;BME280;53696;52.738;4.752;2023-04-25T02:11:04;101174.50;;;17.45;62.95
34584;BME280;53696;52.738;4.752;2023-04-25T02:13:33;101174.50;;;17.45;63.22
34584;BME280;53696;52.738;4.752;2023-04-25T02:16:00;101187.03;;;17.43;62.85
34584;BME280;53696;52.738;4.752;2023-04-25T02:18:29;101199.50;;;17.43;62.95
34584;BME280;53696;52.738;4.752;2023-04-25T02:20:58;101201.31;;;17.42;62.88
34584;BME280;53696;52.738;4.752;2023-04-25T02:23:26;101207.56;;;17.41;62.93
34584;BME280;53696;52.738;4.752;2023-04-25T02:25:56;101221.00;;;17.40;62.74
34584;BME280;53696;52.738;4.752;2023-04-25T02:28:24;101228.13;;;17.39;62.94
34584;BME280;53696;52.738;4.752;2023-04-25T02:30:54;101230.84;;;17.37;62.83
34584;BME280;53696;52.738;4.752;2023-04-25T02:33:21;101218.41;;;17.36;63.14
34584;BME280;53696;52.738;4.752;2023-04-25T02:35:49;101221.13;;;17.35;62.85
34584;BME280;53696;52.738;4.752;2023-04-25T02:38:17;101203.34;;;17.34;62.86
34584;BME280;53696;52.738;4.752;2023-04-25T02:40:45;101203.34;;;17.34;62.49
34584;BME280;53696;52.738;4.752;2023-04-25T02:43:13;101206.06;;;17.32;62.59
34584;BME280;53696;52.738;4.752;2023-04-25T02:45:42;101198.06;;;17.31;62.81
34584;BME280;53696;52.738;4.752;2023-04-25T02:48:11;101199.00;;;17.30;62.49
34584;BME280;53696;52.738;4.752;2023-04-25T02:50:39;101199.94;;;17.29;62.92
34584;BME280;53696;52.738;4.752;2023-04-25T02:53:07;101195.56;;;17.26;62.39
34584;BME280;53696;52.738;4.752;2023-04-25T02:55:35;101196.41;;;17.27;62.40
34584;BME280;53696;52.738;4.752;2023-04-25T02:58:03;101194.66;;;17.26;62.51
34584;BME280;53696;52.738;4.752;2023-04-25T03:00:31;101192.91;;;17.25;62.88
34584;BME280;53696;52.738;4.752;2023-04-25T03:02:59;101184.06;;;17.23;62.16
34584;BME280;53696;52.738;4.752;2023-04-25T03:05:28;101187.59;;;17.23;62.23
34584;BME280;53696;52.738;4.752;2023-04-25T03:07:56;101196.53;;;17.22;62.35
34584;BME280;53696;52.738;4.752;2023-04-25T03:10:24;101192.13;;;17.21;62.46
34584;BME280;53696;52.738;4.752;2023-04-25T03:12:52;101195.69;;;17.20;62.44
34584;BME280;53696;52.738;4.752;2023-04-25T03:15:20;101197.50;;;17.19;62.24
34584;BME280;53696;52.738;4.752;2023-04-25T03:17:48;101202.00;;;17.17;62.44
34584;BME280;53696;52.738;4.752;2023-04-25T03:20:16;101200.25;;;17.18;62.32
34584;BME280;53696;52.738;4.752;2023-04-25T03:22:45;101207.38;;;17.17;62.65
34584;BME280;53696;52.738;4.752;2023-04-25T03:25:13;101203.81;;;17.17;62.27
34584;BME280;53696;52.738;4.752;2023-04-25T03:27:41;101203.84;;;17.15;62.34
34584;BME280;53696;52.738;4.752;2023-04-25T03:30:09;101201.19;;;17.15;62.20
34584;BME280;53696;52.738;4.752;2023-04-25T03:32:37;101202.13;;;17.14;62.35
34584;BME280;53696;52.738;4.752;2023-04-25T03:35:05;101206.56;;;17.14;61.94
34584;BME280;53696;52.738;4.752;2023-04-25T03:37:34;101209.31;;;17.12;61.95
34584;BME280;53696;52.738;4.752;2023-04-25T03:40:04;101203.13;;;17.10;62.39
34584;BME280;53696;52.738;4.752;2023-04-25T03:42:32;101208.47;;;17.10;61.97
34584;BME280;53696;52.738;4.752;2023-04-25T03:45:00;101212.97;;;17.08;62.25
34584;BME280;53696;52.738;4.752;2023-04-25T03:47:28;101218.31;;;17.08;62.03
34584;BME280;53696;52.738;4.752;2023-04-25T03:49:57;101212.09;;;17.08;62.00
34584;BME280;53696;52.738;4.752;2023-04-25T03:52:24;101216.59;;;17.07;61.78
34584;BME280;53696;52.738;4.752;2023-04-25T03:54:52;101222.00;;;17.04;62.01
34584;BME280;53696;52.738;4.752;2023-04-25T03:57:22;101222.00;;;17.04;62.05
34584;BME280;53696;52.738;4.752;2023-04-25T03:59:50;101222.88;;;17.04;61.71
34584;BME280;53696;52.738;4.752;2023-04-25T04:02:18;101222.00;;;17.04;61.70
34584;BME280;53696;52.738;4.752;2023-04-25T04:04:46;101223.81;;;17.03;62.02
34584;BME280;53696;52.738;4.752;2023-04-25T04:07:14;101225.53;;;17.04;61.97
34584;BME280;53696;52.738;4.752;2023-04-25T04:09:42;101224.69;;;17.04;61.77
34584;BME280;53696;52.738;4.752;2023-04-25T04:12:10;101225.59;;;17.03;61.79
34584;BME280;53696;52.738;4.752;2023-04-25T04:14:39;101230.94;;;17.03;61.82
34584;BME280;53696;52.738;4.752;2023-04-25T04:17:07;101237.19;;;17.02;61.82
34584;BME280;53696;52.738;4.752;2023-04-25T04:19:35;101238.09;;;17.01;61.99
34584;BME280;53696;52.738;4.752;2023-04-25T04:22:03;101234.63;;;16.99;62.01
34584;BME280;53696;52.738;4.752;2023-04-25T04:24:31;101243.56;;;16.98;62.10
34584;BME280;53696;52.738;4.752;2023-04-25T04:26:59;101245.31;;;16.99;62.15
34584;BME280;53696;52.738;4.752;2023-04-25T04:29:27;101256.00;;;16.99;61.76
34584;BME280;53696;52.738;4.752;2023-04-25T04:31:57;101250.66;;;16.99;61.80
34584;BME280;53696;52.738;4.752;2023-04-25T04:34:24;101254.25;;;16.98;61.60
34584;BME280;53696;52.738;4.752;2023-04-25T04:36:53;101256.94;;;16.96;62.11
34584;BME280;53696;52.738;4.752;2023-04-25T04:39:21;101258.75;;;16.96;61.97
34584;BME280;53696;52.738;4.752;2023-04-25T04:41:49;101265.91;;;16.94;61.99
34584;BME280;53696;52.738;4.752;2023-04-25T04:44:17;101251.63;;;16.95;61.66
34584;BME280;53696;52.738;4.752;2023-04-25T04:46:45;101263.25;;;16.94;62.06
34584;BME280;53696;52.738;4.752;2023-04-25T04:49:14;101257.94;;;16.92;62.05
34584;BME280;53696;52.738;4.752;2023-04-25T04:51:42;101265.97;;;16.92;61.58
34584;BME280;53696;52.738;4.752;2023-04-25T04:54:11;101266.03;;;16.90;61.48
34584;BME280;53696;52.738;4.752;2023-04-25T04:56:39;101265.13;;;16.90;61.60
34584;BME280;53696;52.738;4.752;2023-04-25T04:59:08;101273.13;;;16.90;61.58
34584;BME280;53696;52.738;4.752;2023-04-25T05:01:36;101280.28;;;16.89;61.67
34584;BME280;53696;52.738;4.752;2023-04-25T05:04:05;101284.78;;;16.87;61.94
34584;BME280;53696;52.738;4.752;2023-04-25T05:06:35;101286.59;;;16.87;61.89
34584;BME280;53696;52.738;4.752;2023-04-25T05:09:03;101295.47;;;16.87;61.65
34584;BME280;53696;52.738;4.752;2023-04-25T05:11:31;101295.47;;;16.87;61.75
34584;BME280;53696;52.738;4.752;2023-04-25T05:13:58;101291.03;;;16.86;61.82
34584;BME280;53696;52.738;4.752;2023-04-25T05:16:27;101297.28;;;16.85;61.44
34584;BME280;53696;52.738;4.752;2023-04-25T05:18:55;101303.53;;;16.86;61.72
34584;BME280;53696;52.738;4.752;2023-04-25T05:21:22;101298.25;;;16.84;61.78
34584;BME280;53696;52.738;4.752;2023-04-25T05:23:52;101306.25;;;16.84;61.77
34584;BME280;53696;52.738;4.752;2023-04-25T05:26:20;101311.59;;;16.84;61.47
34584;BME280;53696;52.738;4.752;2023-04-25T05:28:47;101311.59;;;16.84;61.92
34584;BME280;53696;52.738;4.752;2023-04-25T05:31:17;101316.06;;;16.84;61.48
34584;BME280;53696;52.738;4.752;2023-04-25T05:33:44;101316.06;;;16.84;61.40
34584;BME280;53696;52.738;4.752;2023-04-25T05:36:12;101304.50;;;16.83;61.48
34584;BME280;53696;52.738;4.752;2023-04-25T05:38:40;101314.28;;;16.84;61.73
34584;BME280;53696;52.738;4.752;2023-04-25T05:41:11;101319.47;;;16.89;61.56
34584;BME280;53696;52.738;4.752;2023-04-25T05:43:39;101313.19;;;16.92;61.80
34584;BME280;53696;52.738;4.752;2023-04-25T05:46:11;101318.44;;;16.95;61.59
34584;BME280;53696;52.738;4.752;2023-04-25T05:48:39;101329.06;;;16.98;61.28
34584;BME280;53696;52.738;4.752;2023-04-25T05:51:07;101324.53;;;17.01;61.50
34584;BME280;53696;52.738;4.752;2023-04-25T05:53:36;101322.66;;;17.05;61.44
34584;BME280;53696;52.738;4.752;2023-04-25T05:56:04;101334.19;;;17.07;61.23
34584;BME280;53696;52.738;4.752;2023-04-25T05:58:33;101340.38;;;17.08;61.61
34584;BME280;53696;52.738;4.752;2023-04-25T06:01:01;101342.16;;;17.09;61.18
34584;BME280;53696;52.738;4.752;2023-04-25T06:03:30;101342.09;;;17.10;61.18
34584;BME280;53696;52.738;4.752;2023-04-25T06:05:59;101356.34;;;17.11;61.05
34584;BME280;53696;52.738;4.752;2023-04-25T06:08:27;101360.81;;;17.10;61.54
34584;BME280;53696;52.738;4.752;2023-04-25T06:10:55;101357.28;;;17.08;61.49
34584;BME280;53696;52.738;4.752;2023-04-25T06:13:24;101360.91;;;17.07;61.53
34584;BME280;53696;52.738;4.752;2023-04-25T06:15:53;101370.75;;;17.05;61.17
34584;BME280;53696;52.738;4.752;2023-04-25T06:18:21;101374.34;;;17.04;61.35
34584;BME280;53696;52.738;4.752;2023-04-25T06:20:49;101377.88;;;17.04;61.33
34584;BME280;53696;52.738;4.752;2023-04-25T06:23:17;101382.28;;;17.07;61.62
34584;BME280;53696;52.738;4.752;2023-04-25T06:25:45;101378.66;;;17.10;61.71
34584;BME280;53696;52.738;4.752;2023-04-25T06:28:12;101380.31;;;17.14;61.38
34584;BME280;53696;52.738;4.752;2023-04-25T06:30:40;101382.91;;;17.17;61.39
34584;BME280;53696;52.738;4.752;2023-04-25T06:33:09;101382.81;;;17.20;61.70
34584;BME280;53696;52.738;4.752;2023-04-25T06:35:37;101385.47;;;17.21;61.42
34584;BME280;53696;52.738;4.752;2023-04-25T06:38:05;101388.97;;;17.24;61.20
34584;BME280;53696;52.738;4.752;2023-04-25T06:40:32;101401.41;;;17.25;61.34
34584;BME280;53696;52.738;4.752;2023-04-25T06:43:00;101402.31;;;17.25;61.28
34584;BME280;53696;52.738;4.752;2023-04-25T06:45:29;101402.31;;;17.25;61.61
34584;BME280;53696;52.738;4.752;2023-04-25T06:47:57;101405.91;;;17.24;61.54
34584;BME280;53696;52.738;4.752;2023-04-25T06:50:27;101402.34;;;17.24;61.59
34584;BME280;53696;52.738;4.752;2023-04-25T06:52:55;101404.16;;;17.23;61.46
34584;BME280;53696;52.738;4.752;2023-04-25T06:55:22;101399.72;;;17.22;61.97
34584;BME280;53696;52.738;4.752;2023-04-25T06:57:50;101398.84;;;17.21;61.96
34584;BME280;53696;52.738;4.752;2023-04-25T07:00:20;101401.53;;;17.21;61.82
34584;BME280;53696;52.738;4.752;2023-04-25T07:02:47;101404.19;;;17.21;61.61
34584;BME280;53696;52.738;4.752;2023-04-25T07:05:17;101406.88;;;17.21;61.82
34584;BME280;53696;52.738;4.752;2023-04-25T07:07:46;101400.63;;;17.21;62.07
34584;BME280;53696;52.738;4.752;2023-04-25T07:10:14;101405.09;;;17.20;62.11
34584;BME280;53696;52.738;4.752;2023-04-25T07:12:42;101407.78;;;17.20;61.64
34584;BME280;53696;52.738;4.752;2023-04-25T07:15:10;101410.44;;;17.20;62.04
34584;BME280;53696;52.738;4.752;2023-04-25T07:17:38;101407.72;;;17.22;61.56
34584;BME280;53696;52.738;4.752;2023-04-25T07:20:07;101401.53;;;17.21;61.68
34584;BME280;53696;52.738;4.752;2023-04-25T07:22:36;101413.03;;;17.24;61.33
34584;BME280;53696;52.738;4.752;2023-04-25T07:25:06;101413.88;;;17.26;61.33
34584;BME280;53696;52.738;4.752;2023-04-25T07:27:35;101416.50;;;17.27;60.98
34584;BME280;53696;52.738;4.752;2023-04-25T07:30:04;101430.72;;;17.29;60.99
34584;BME280;53696;52.738;4.752;2023-04-25T07:32:33;101436.06;;;17.29;61.08
34584;BME280;53696;52.738;4.752;2023-04-25T07:35:01;101444.97;;;17.30;61.16
34584;BME280;53696;52.738;4.752;2023-04-25T07:37:30;101451.25;;;17.29;61.30
34584;BME280;53696;52.738;4.752;2023-04-25T07:39:58;101461.94;;;17.29;60.99
34584;BME280;53696;52.738;4.752;2023-04-25T07:42:27;101462.84;;;17.28;61.06
34584;BME280;53696;52.738;4.752;2023-04-25T07:44:56;101450.41;;;17.27;61.38
34584;BME280;53696;52.738;4.752;2023-04-25T07:47:23;101444.19;;;17.26;61.17
34584;BME280;53696;52.738;4.752;2023-04-25T07:49:52;101442.41;;;17.25;61.15
34584;BME280;53696;52.738;4.752;2023-04-25T07:52:19;101444.19;;;17.25;61.00
34584;BME280;53696;52.738;4.752;2023-04-25T07:54:47;101444.19;;;17.25;61.19
34584;BME280;53696;52.738;4.752;2023-04-25T07:57:15;101454.03;;;17.24;61.20
34584;BME280;53696;52.738;4.752;2023-04-25T07:59:46;101460.25;;;17.25;61.35
34584;BME280;53696;52.738;4.752;2023-04-25T08:02:13;101470.22;;;17.18;60.58
34584;BME280;53696;52.738;4.752;2023-04-25T08:04:41;101469.31;;;17.17;60.53
34584;BME280;53696;52.738;4.752;2023-04-25T08:07:09;101474.63;;;17.20;60.30
34584;BME280;53696;52.738;4.752;2023-04-25T08:09:37;101476.38;;;17.21;61.01
34584;BME280;53696;52.738;4.752;2023-04-25T08:12:05;101477.19;;;17.24;60.84
34584;BME280;53696;52.738;4.752;2023-04-25T08:14:34;101481.63;;;17.25;60.79
34584;BME280;53696;52.738;4.752;2023-04-25T08:17:06;101484.28;;;17.26;60.93
34584;BME280;53696;52.738;4.752;2023-04-25T08:19:34;101493.13;;;17.28;61.11
34584;BME280;53696;52.738;4.752;2023-04-25T08:22:02;101493.72;;;17.41;61.15
34584;BME280;53696;52.738;4.752;2023-04-25T08:24:30;101497.63;;;17.64;61.13
34584;BME280;53696;52.738;4.752;2023-04-25T08:26:58;101504.00;;;17.93;60.48
34584;BME280;53696;52.738;4.752;2023-04-25T08:29:27;101504.16;;;18.20;59.94
34584;BME280;53696;52.738;4.752;2023-04-25T08:31:56;101516.22;;;18.35;59.60
34584;BME280;53696;52.738;4.752;2023-04-25T08:34:25;101510.56;;;18.45;59.36
34584;BME280;53696;52.738;4.752;2023-04-25T08:36:53;101521.00;;;18.56;59.39
34584;BME280;53696;52.738;4.752;2023-04-25T08:39:21;101511.94;;;18.60;59.45
34584;BME280;53696;52.738;4.752;2023-04-25T08:41:50;101516.38;;;18.61;59.25
34584;BME280;53696;52.738;4.752;2023-04-25T08:44:19;101520.78;;;18.64;59.51
34584;BME280;53696;52.738;4.752;2023-04-25T08:46:49;101515.66;;;18.55;59.27
34584;BME280;53696;52.738;4.752;2023-04-25T08:49:18;101532.63;;;18.54;59.05
34584;BME280;53696;52.738;4.752;2023-04-25T08:51:49;101524.78;;;18.16;56.01
34584;BME280;53696;52.738;4.752;2023-04-25T08:54:19;101527.22;;;17.92;55.56
34584;BME280;53696;52.738;4.752;2023-04-25T08:57:02;101534.03;;;18.04;56.58
34584;BME280;53696;52.738;4.752;2023-04-25T08:59:32;101541.72;;;18.16;56.88
34584;BME280;53696;52.738;4.752;2023-04-25T09:02:03;101541.34;;;18.30;56.75
34584;BME280;53696;52.738;4.752;2023-04-25T09:04:31;101551.09;;;18.33;56.89
34584;BME280;53696;52.738;4.752;2023-04-25T09:07:00;101560.81;;;18.37;56.98
34584;BME280;53696;52.738;4.752;2023-04-25T09:09:29;101564.72;;;18.24;56.96
34584;BME280;53696;52.738;4.752;2023-04-25T09:11:57;101570.19;;;18.21;57.14
34584;BME280;53696;52.738;4.752;2023-04-25T09:14:26;101577.44;;;18.15;57.10
34584;BME280;53696;52.738;4.752;2023-04-25T09:17:04;101578.50;;;18.10;57.35
34584;BME280;53696;52.738;4.752;2023-04-25T09:19:35;101572.50;;;18.00;56.62
34584;BME280;53696;52.738;4.752;2023-04-25T09:22:09;101574.13;;;18.06;56.90
34584;BME280;53696;52.738;4.752;2023-04-25T09:24:39;101574.63;;;18.22;56.86
34584;BME280;53696;52.738;4.752;2023-04-25T09:27:09;101584.88;;;18.39;56.66
34584;BME280;53696;52.738;4.752;2023-04-25T09:29:38;101584.50;;;18.51;56.54
34584;BME280;53696;52.738;4.752;2023-04-25T09:32:25;101582.44;;;18.62;56.65
34584;BME280;53696;52.738;4.752;2023-04-25T09:34:55;101573.50;;;18.62;56.74
34584;BME280;53696;52.738;4.752;2023-04-25T09:37:27;101579.94;;;18.55;56.76
34584;BME280;53696;52.738;4.752;2023-04-25T09:39:58;101591.88;;;18.43;56.63
34584;BME280;53696;52.738;4.752;2023-04-25T09:42:29;101594.69;;;18.38;56.63
34584;BME280;53696;52.738;4.752;2023-04-25T09:44:59;101594.13;;;18.27;56.55
34584;BME280;53696;52.738;4.752;2023-04-25T09:47:28;101595.31;;;18.15;56.94
34584;BME280;53696;52.738;4.752;2023-04-25T09:49:56;101605.28;;;18.08;56.96
34584;BME280;53696;52.738;4.752;2023-04-25T09:52:26;101604.63;;;18.00;56.93
34584;BME280;53696;52.738;4.752;2023-04-25T09:54:54;101599.38;;;17.97;57.05
34584;BME280;53696;52.738;4.752;2023-04-25T09:57:23;101612.78;;;17.95;57.21
34584;BME280;53696;52.738;4.752;2023-04-25T09:59:53;101607.44;;;17.95;57.06
34584;BME280;53696;52.738;4.752;2023-04-25T10:02:24;101612.53;;;18.05;57.28
34584;BME280;53696;52.738;4.752;2023-04-25T10:04:53;101615.88;;;18.13;57.23
34584;BME280;53696;52.738;4.752;2023-04-25T10:07:23;101617.88;;;18.06;56.97
34584;BME280;53696;52.738;4.752;2023-04-25T10:09:58;101626.94;;;18.00;57.30
34584;BME280;53696;52.738;4.752;2023-04-25T10:12:27;101634.22;;;17.95;57.36
34584;BME280;53696;52.738;4.752;2023-04-25T10:14:54;101628.03;;;17.92;57.19
34584;BME280;53696;52.738;4.752;2023-04-25T10:17:23;101628.81;;;17.97;57.65
34584;BME280;53696;52.738;4.752;2023-04-25T10:19:51;101631.63;;;17.91;56.70
34584;BME280;53696;52.738;4.752;2023-04-25T10:22:26;101637.53;;;18.04;56.87
34584;BME280;53696;52.738;4.752;2023-04-25T10:24:58;101637.13;;;18.19;56.72
34584;BME280;53696;52.738;4.752;2023-04-25T10:27:27;101641.28;;;18.31;56.79
34584;BME280;53696;52.738;4.752;2023-04-25T10:30:00;101637.50;;;18.40;56.52
34584;BME280;53696;52.738;4.752;2023-04-25T10:32:31;101648.78;;;18.53;56.44
34584;BME280;53696;52.738;4.752;2023-04-25T10:35:10;101644.94;;;18.63;56.04
34584;BME280;53696;52.738;4.752;2023-04-25T10:37:38;101656.25;;;18.74;55.98
34584;BME280;53696;52.738;4.752;2023-04-25T10:40:25;101647.97;;;18.82;55.98
34584;BME280;53696;52.738;4.752;2023-04-25T10:42:54;101647.78;;;18.90;56.00
34584;BME280;53696;52.738;4.752;2023-04-25T10:45:22;101648.44;;;18.98;56.12
34584;BME280;53696;52.738;4.752;2023-04-25T10:47:50;101651.06;;;19.00;55.73
34584;BME280;53696;52.738;4.752;2023-04-25T10:50:18;101655.44;;;19.02;56.25
34584;BME280;53696;52.738;4.752;2023-04-25T10:52:45;101652.63;;;19.07;56.14
34584;BME280;53696;52.738;4.752;2023-04-25T10:55:14;101648.06;;;19.10;56.28
34584;BME280;53696;52.738;4.752;2023-04-25T10:57:45;101656.03;;;19.14;56.07
34584;BME280;53696;52.738;4.752;2023-04-25T11:00:16;101649.63;;;19.18;56.11
34584;BME280;53696;52.738;4.752;2023-04-25T11:02:47;101659.38;;;19.20;56.07
34584;BME280;53696;52.738;4.752;2023-04-25T11:05:22;101655.72;;;19.23;56.02
34584;BME280;53696;52.738;4.752;2023-04-25T11:07:51;101645.84;;;19.25;55.91
34584;BME280;53696;52.738;4.752;2023-04-25T11:10:33;101651.97;;;19.29;56.18
34584;BME280;53696;52.738;4.752;2023-04-25T11:13:04;101647.53;;;19.29;55.92
34584;BME280;53696;52.738;4.752;2023-04-25T11:15:32;101655.69;;;19.24;56.08
34584;BME280;53696;52.738;4.752;2023-04-25T11:18:01;101659.03;;;19.03;54.82
34584;BME280;53696;52.738;4.752;2023-04-25T11:20:29;101666.78;;;18.81;54.59
34584;BME280;53696;52.738;4.752;2023-04-25T11:22:58;101659.94;;;18.70;55.04
34584;BME280;53696;52.738;4.752;2023-04-25T11:25:27;101660.06;;;18.66;54.88
34584;BME280;53696;52.738;4.752;2023-04-25T11:27:58;101656.06;;;18.81;55.05
34584;BME280;53696;52.738;4.752;2023-04-25T11:30:29;101659.31;;;19.23;54.74
34584;BME280;53696;52.738;4.752;2023-04-25T11:32:58;101665.72;;;19.48;54.29
34584;BME280;53696;52.738;4.752;2023-04-25T11:35:26;101664.53;;;19.58;54.05
34584;BME280;53696;52.738;4.752;2023-04-25T11:37:55;101665.38;;;19.60;54.14
34584;BME280;53696;52.738;4.752;2023-04-25T11:40:23;101655.56;;;19.59;54.10
34584;BME280;53696;52.738;4.752;2023-04-25T11:42:51;101658.44;;;19.51;54.26
34584;BME280;53696;52.738;4.752;2023-04-25T11:45:22;101672.13;;;19.43;54.48
34584;BME280;53696;52.738;4.752;2023-04-25T11:47:52;101670.53;;;19.36;54.74
34584;BME280;53696;52.738;4.752;2023-04-25T11:50:20;101669.78;;;19.31;54.75
34584;BME280;53696;52.738;4.752;2023-04-25T11:52:48;101678.03;;;19.25;54.86
34584;BME280;53696;52.738;4.752;2023-04-25T11:55:18;101677.38;;;19.17;54.93
34584;BME280;53696;52.738;4.752;2023-04-25T11:57:47;101679.38;;;19.10;55.08
34584;BME280;53696;52.738;4.752;2023-04-25T12:00:18;101676.72;;;19.08;55.38
34584;BME280;53696;52.738;4.752;2023-04-25T12:02:50;101690.22;;;19.05;54.96
34584;BME280;53696;52.738;4.752;2023-04-25T12:05:23;101685.88;;;19.01;55.27
34584;BME280;53696;52.738;4.752;2023-04-25T12:08:09;101695.75;;;18.99;55.34
34584;BME280;53696;52.738;4.752;2023-04-25T12:10:39;101694.03;;;18.97;55.47
34584;BME280;53696;52.738;4.752;2023-04-25T12:13:20;101695.84;;;18.96;55.44
34584;BME280;53696;52.738;4.752;2023-04-25T12:15:49;101699.53;;;18.92;55.27
34584;BME280;53696;52.738;4.752;2023-04-25T12:18:19;101699.56;;;18.90;55.65
34584;BME280;53696;52.738;4.752;2023-04-25T12:20:50;101690.75;;;18.87;55.67
34584;BME280;53696;52.738;4.752;2023-04-25T12:23:25;101704.19;;;18.85;55.62
34584;BME280;53696;52.738;4.752;2023-04-25T12:25:53;101712.38;;;18.81;55.82
34584;BME280;53696;52.738;4.752;2023-04-25T12:28:23;101715.97;;;18.79;55.55
34584;BME280;53696;52.738;4.752;2023-04-25T12:30:55;101715.97;;;18.79;55.55
34584;BME280;53696;52.738;4.752;2023-04-25T12:33:25;101724.91;;;18.78;55.87
34584;BME280;53696;52.738;4.752;2023-04-25T12:35:55;101730.31;;;18.77;55.57
34584;BME280;53696;52.738;4.752;2023-04-25T12:38:25;101729.44;;;18.76;55.85
34584;BME280;53696;52.738;4.752;2023-04-25T12:40:53;101730.31;;;18.77;55.94
34584;BME280;53696;52.738;4.752;2023-04-25T12:43:21;101727.66;;;18.77;55.57
34584;BME280;53696;52.738;4.752;2023-04-25T12:45:49;101743.78;;;18.75;55.97
34584;BME280;53696;52.738;4.752;2023-04-25T12:48:17;101741.13;;;18.74;55.87
34584;BME280;53696;52.738;4.752;2023-04-25T12:50:46;101737.63;;;18.72;55.74
34584;BME280;53696;52.738;4.752;2023-04-25T12:53:17;101736.72;;;18.71;55.72
34584;BME280;53696;52.738;4.752;2023-04-25T12:55:45;101750.13;;;18.71;55.88
34584;BME280;53696;52.738;4.752;2023-04-25T12:58:14;101742.19;;;18.68;55.88
34584;BME280;53696;52.738;4.752;2023-04-25T13:00:42;101738.56;;;18.69;55.94